Time;durP1;ratioP1;P1;durP2;ratioP2;P2;SDS_P1;SDS_P2;PMS_P1;PMS_P2;Temp;Humidity;BMP_temperature;BMP_pressure;BME280_temperature;BME280_humidity;BME280_pressure;Samples;Min_cycle;Max_cycle;Signal;HPM_P1;HPM_P2
2023/07/03 00:02:08;;;;;;;6.10;2.58;;;589.30;2432.00;;;;;;5080339;28;20048;-71
2023/07/03 00:04:35;;;;;;;4.68;2.78;;;589.30;2432.00;;;;;;5078089;28;20029;-72
2023/07/03 00:07:05;;;;;;;5.82;2.60;;;589.20;2432.00;;;;;;5081419;28;20146;-72
2023/07/03 00:09:31;;;;;;;6.18;3.03;;;589.20;2432.00;;;;;;5075360;28;20028;-71
2023/07/03 00:11:57;;;;;;;6.38;3.78;;;589.10;2432.00;;;;;;5075471;28;20021;-74
2023/07/03 00:14:23;;;;;;;3.75;2.70;;;589.00;2432.00;;;;;;5095242;28;20097;-72
2023/07/03 00:16:49;;;;;;;6.65;3.00;;;588.80;2432.00;;;;;;5094430;28;20402;-72
2023/07/03 00:19:15;;;;;;;6.07;3.00;;;588.80;2432.00;;;;;;5095143;28;20028;-73
2023/07/03 00:21:43;;;;;;;5.18;3.35;;;588.80;2432.00;;;;;;5095301;28;20020;-72
2023/07/03 00:24:10;;;;;;;6.88;3.38;;;588.90;2432.00;;;;;;5095108;28;20028;-71
2023/07/03 00:26:36;;;;;;;9.07;3.00;;;588.80;2432.00;;;;;;5095165;28;20024;-71
2023/07/03 00:29:02;;;;;;;9.18;3.50;;;589.10;2432.00;;;;;;5095260;28;20032;-71
2023/07/03 00:31:28;;;;;;;6.50;3.15;;;588.80;2432.00;;;;;;5095053;28;20024;-71
2023/07/03 00:33:54;;;;;;;8.02;3.30;;;588.80;2432.00;;;;;;5094812;28;20229;-71
2023/07/03 00:36:19;;;;;;;6.38;2.83;;;588.90;2432.00;;;;;;5094885;28;20017;-72
2023/07/03 00:38:45;;;;;;;6.13;2.95;;;588.90;2432.00;;;;;;5094581;28;20390;-71
2023/07/03 00:41:10;;;;;;;6.70;2.72;;;589.00;2432.00;;;;;;5071641;28;20382;-72
2023/07/03 00:43:43;;;;;;;6.80;2.55;;;589.10;2432.00;;;;;;5073272;28;20099;-75
2023/07/03 00:46:10;;;;;;;5.63;2.65;;;589.10;2432.00;;;;;;5070887;28;20375;-71
2023/07/03 00:48:40;;;;;;;7.93;3.22;;;589.10;2432.00;;;;;;5073207;28;20020;-72
2023/07/03 00:51:08;;;;;;;8.00;2.50;;;589.10;2432.00;;;;;;5073599;28;20490;-72
2023/07/03 00:53:34;;;;;;;6.43;2.92;;;589.20;2432.00;;;;;;5072918;28;20040;-71
2023/07/03 00:55:59;;;;;;;7.13;2.63;;;589.20;2432.00;;;;;;5072595;28;20056;-72
2023/07/03 00:58:27;;;;;;;4.10;2.60;;;589.10;2432.00;;;;;;5073422;28;20067;-72
2023/07/03 01:01:17;;;;;;;4.57;2.75;;;589.00;2432.00;;;;;;5072493;28;20074;-72
2023/07/03 01:03:53;;;;;;;3.88;2.22;;;589.10;2432.00;;;;;;5072314;28;20121;-72
2023/07/03 01:06:24;;;;;;;5.72;3.17;;;589.10;2432.00;;;;;;5071386;28;20425;-73
2023/07/03 01:08:54;;;;;;;10.73;2.50;;;588.90;2432.00;;;;;;5072009;28;20016;-74
2023/07/03 01:11:22;;;;;;;7.13;3.05;;;588.80;2432.00;;;;;;5072291;28;20021;-73
2023/07/03 01:13:51;;;;;;;4.30;2.55;;;588.80;2432.00;;;;;;5072121;28;20051;-71
2023/07/03 01:16:18;;;;;;;5.60;2.60;;;588.80;2432.00;;;;;;5072315;28;20036;-75
2023/07/03 01:18:47;;;;;;;6.82;2.70;;;588.80;2432.00;;;;;;5070987;28;20378;-71
2023/07/03 01:21:51;;;;;;;5.55;3.05;;;564.10;2432.00;;;;;;5071202;28;20070;-72
2023/07/03 01:24:41;;;;;;;7.57;2.58;;;588.80;2432.00;;;;;;5066700;28;20032;-72
2023/07/03 01:27:09;;;;;;;5.57;2.58;;;588.80;2432.00;;;;;;5071094;28;20021;-72
2023/07/03 01:29:39;;;;;;;7.85;2.90;;;588.80;2432.00;;;;;;5071390;28;20025;-74
2023/07/03 01:32:08;;;;;;;5.82;3.00;;;564.00;2432.00;;;;;;5069407;28;20039;-73
2023/07/03 01:34:34;;;;;;;7.55;2.85;;;564.00;2432.00;;;;;;5071361;28;20032;-72
2023/07/03 01:37:01;;;;;;;4.72;2.78;;;564.00;2432.00;;;;;;5071832;28;20074;-72
2023/07/03 01:39:27;;;;;;;7.95;2.72;;;564.00;2432.00;;;;;;5071947;28;20051;-72
2023/07/03 01:41:54;;;;;;;6.35;2.70;;;564.10;2432.00;;;;;;5069380;28;20020;-73
2023/07/03 01:44:20;;;;;;;7.60;3.15;;;564.00;2432.00;;;;;;5071869;28;20024;-72
2023/07/03 01:46:45;;;;;;;4.95;2.78;;;564.00;2432.00;;;;;;5071756;28;20031;-72
2023/07/03 01:49:13;;;;;;;6.93;2.95;;;564.10;2432.00;;;;;;5071408;28;20028;-73
2023/07/03 01:51:57;;;;;;;6.40;3.50;;;564.10;2432.00;;;;;;5071719;28;20020;-72
2023/07/03 01:54:34;;;;;;;9.02;3.78;;;564.10;2432.00;;;;;;5071282;28;20127;-72
2023/07/03 01:57:02;;;;;;;8.07;3.03;;;588.80;2432.00;;;;;;5071721;28;20493;-71
2023/07/03 01:59:31;;;;;;;7.32;3.10;;;564.10;2432.00;;;;;;5071378;28;20032;-76
2023/07/03 02:02:11;;;;;;;8.27;3.35;;;564.10;2432.00;;;;;;5071750;28;20016;-72
2023/07/03 02:04:42;;;;;;;6.35;2.80;;;564.10;2432.00;;;;;;5069405;28;20031;-72
2023/07/03 02:07:11;;;;;;;5.05;2.83;;;564.10;2432.00;;;;;;5071659;28;20035;-73
2023/07/03 02:09:39;;;;;;;5.32;2.83;;;564.00;2432.00;;;;;;5071434;28;20546;-72
2023/07/03 02:12:06;;;;;;;5.10;2.97;;;563.90;2432.00;;;;;;5071388;28;20024;-72
2023/07/03 02:14:34;;;;;;;5.28;3.05;;;563.90;2432.00;;;;;;5071518;28;20028;-73
2023/07/03 02:17:03;;;;;;;7.15;2.35;;;563.90;2432.00;;;;;;5071497;28;20021;-73
2023/07/03 02:19:29;;;;;;;6.35;3.10;;;564.00;2432.00;;;;;;5071209;28;20035;-72
2023/07/03 02:21:56;;;;;;;5.43;3.08;;;564.00;2432.00;;;;;;5071748;28;20016;-72
2023/07/03 02:24:22;;;;;;;9.20;2.90;;;563.90;2432.00;;;;;;5071027;28;20104;-72
2023/07/03 02:26:48;;;;;;;8.43;3.20;;;564.00;2432.00;;;;;;5071384;28;20100;-73
2023/07/03 02:29:15;;;;;;;6.75;2.97;;;564.10;2432.00;;;;;;5071673;28;20543;-72
2023/07/03 02:31:41;;;;;;;6.90;3.40;;;563.90;2432.00;;;;;;5071186;28;20025;-73
2023/07/03 02:34:07;;;;;;;6.18;3.63;;;563.90;2432.00;;;;;;5071045;28;20111;-71
2023/07/03 02:36:37;;;;;;;9.85;3.63;;;563.90;2432.00;;;;;;5070802;28;20429;-72
2023/07/03 02:39:07;;;;;;;6.30;3.15;;;563.90;2432.00;;;;;;5072398;28;20031;-72
2023/07/03 02:41:35;;;;;;;6.65;2.95;;;563.90;2432.00;;;;;;5074789;28;20099;-75
2023/07/03 02:44:00;;;;;;;6.70;3.50;;;563.80;2432.00;;;;;;5067076;28;20028;-72
2023/07/03 02:46:26;;;;;;;6.18;3.30;;;563.70;2432.00;;;;;;5075511;28;20020;-73
2023/07/03 02:48:52;;;;;;;6.72;2.85;;;563.70;2432.00;;;;;;5074972;28;20041;-71
2023/07/03 02:51:18;;;;;;;5.05;3.17;;;563.70;2432.00;;;;;;5074918;28;20066;-72
2023/07/03 02:53:44;;;;;;;6.13;3.67;;;563.70;2432.00;;;;;;5074835;28;20103;-83
2023/07/03 02:56:10;;;;;;;11.23;3.25;;;563.70;2432.00;;;;;;5075274;28;20048;-72
2023/07/03 02:58:36;;;;;;;7.15;3.47;;;563.80;2432.00;;;;;;5074661;28;20027;-72
2023/07/03 03:01:02;;;;;;;6.07;3.58;;;563.80;2432.00;;;;;;5074906;28;20021;-75
2023/07/03 03:03:28;;;;;;;5.43;3.38;;;563.90;2432.00;;;;;;5074837;28;20027;-72
2023/07/03 03:05:57;;;;;;;5.22;3.13;;;563.90;2432.00;;;;;;5074807;28;20016;-71
2023/07/03 03:08:24;;;;;;;7.88;3.83;;;563.80;2432.00;;;;;;5074702;28;20390;-74
2023/07/03 03:10:51;;;;;;;9.63;3.70;;;563.80;2432.00;;;;;;5074686;28;20017;-71
2023/07/03 03:13:17;;;;;;;5.72;3.50;;;563.80;2432.00;;;;;;5074483;28;20032;-72
2023/07/03 03:15:43;;;;;;;6.85;3.78;;;563.70;2432.00;;;;;;5074839;28;20044;-73
2023/07/03 03:18:09;;;;;;;9.27;3.42;;;563.80;2432.00;;;;;;5074624;28;20052;-72
2023/07/03 03:20:35;;;;;;;5.22;3.38;;;563.70;2432.00;;;;;;5074054;28;20320;-72
2023/07/03 03:23:01;;;;;;;7.35;3.63;;;563.70;2432.00;;;;;;5074577;28;20489;-73
2023/07/03 03:25:27;;;;;;;7.18;3.10;;;563.80;2432.00;;;;;;5074236;28;20027;-72
2023/07/03 03:27:55;;;;;;;7.32;3.65;;;563.70;2432.00;;;;;;5074411;28;20398;-72
2023/07/03 03:30:21;;;;;;;6.97;4.03;;;563.70;2432.00;;;;;;5074214;28;20383;-73
2023/07/03 03:32:46;;;;;;;7.72;3.22;;;563.70;2432.00;;;;;;5074251;28;20021;-73
2023/07/03 03:35:12;;;;;;;7.45;3.15;;;563.60;2432.00;;;;;;5073997;28;20031;-72
2023/07/03 03:37:38;;;;;;;8.15;4.07;;;563.70;2432.00;;;;;;5074314;28;20016;-72
2023/07/03 03:40:07;;;;;;;7.65;3.75;;;563.70;2432.00;;;;;;5074420;28;20024;-74
2023/07/03 03:42:33;;;;;;;5.80;3.30;;;563.80;2432.00;;;;;;5074365;28;20154;-72
2023/07/03 03:44:59;;;;;;;5.95;3.05;;;563.70;2432.00;;;;;;5073771;28;20462;-74
2023/07/03 03:47:25;;;;;;;9.13;4.32;;;563.70;2432.00;;;;;;5073922;28;20074;-72
2023/07/03 03:49:51;;;;;;;8.90;3.90;;;563.70;2432.00;;;;;;5073721;28;20066;-71
2023/07/03 03:52:16;;;;;;;5.13;3.47;;;563.70;2432.00;;;;;;5073717;28;20025;-72
2023/07/03 03:54:43;;;;;;;6.32;3.83;;;563.80;2432.00;;;;;;5073871;28;20129;-72
2023/07/03 03:57:09;;;;;;;9.60;3.58;;;563.80;2432.00;;;;;;5073576;28;20129;-73
2023/07/03 03:59:34;;;;;;;9.82;3.58;;;563.80;2432.00;;;;;;5073733;28;20521;-72
2023/07/03 04:02:00;;;;;;;8.82;3.80;;;563.90;2432.00;;;;;;5073948;28;20024;-72
2023/07/03 04:04:26;;;;;;;8.60;3.90;;;563.90;2432.00;;;;;;5073605;28;20025;-72
2023/07/03 04:06:52;;;;;;;8.55;4.22;;;563.70;2432.00;;;;;;5073515;28;20374;-72
2023/07/03 04:09:18;;;;;;;9.02;4.18;;;563.70;2432.00;;;;;;5073875;28;20486;-72
2023/07/03 04:11:43;;;;;;;7.20;3.80;;;563.90;2432.00;;;;;;5073384;28;20016;-72
2023/07/03 04:14:09;;;;;;;7.15;3.50;;;563.90;2432.00;;;;;;5081299;28;20041;-74
2023/07/03 04:16:35;;;;;;;7.75;3.60;;;564.10;2432.00;;;;;;5079053;28;20466;-72
2023/07/03 04:19:01;;;;;;;8.25;4.22;;;588.80;2432.00;;;;;;5079363;28;20024;-75
2023/07/03 04:21:27;;;;;;;7.47;4.28;;;588.80;2432.00;;;;;;5075119;28;20028;-72
2023/07/03 04:23:53;;;;;;;9.90;4.05;;;588.80;2432.00;;;;;;5077156;28;20029;-72
2023/07/03 04:26:20;;;;;;;8.43;4.28;;;588.80;2432.00;;;;;;5080846;28;20101;-79
2023/07/03 04:28:45;;;;;;;8.13;4.40;;;564.10;2432.00;;;;;;5077245;28;20020;-72
2023/07/03 04:31:11;;;;;;;7.70;4.10;;;588.80;2432.00;;;;;;5076445;28;20032;-71
2023/07/03 04:33:37;;;;;;;8.57;4.15;;;588.80;2432.00;;;;;;5082976;28;20044;-72
2023/07/03 04:36:03;;;;;;;9.32;4.45;;;588.90;2432.00;;;;;;5077499;28;20059;-72
2023/07/03 04:38:28;;;;;;;8.57;4.05;;;588.90;2432.00;;;;;;5081944;28;20474;-71
2023/07/03 04:40:54;;;;;;;10.65;4.45;;;588.90;2432.00;;;;;;5079042;28;20021;-71
2023/07/03 04:43:20;;;;;;;10.73;4.55;;;588.80;2432.00;;;;;;5084491;28;20032;-71
2023/07/03 04:45:52;;;;;;;7.72;4.45;;;588.90;2432.00;;;;;;5080883;28;20454;-71
2023/07/03 04:48:19;;;;;;;9.50;4.45;;;588.90;2432.00;;;;;;5080486;28;20534;-75
2023/07/03 04:50:48;;;;;;;10.70;4.07;;;588.90;2432.00;;;;;;5081469;28;20089;-72
2023/07/03 04:53:14;;;;;;;6.88;4.03;;;589.00;2432.00;;;;;;5084392;28;20035;-73
2023/07/03 04:55:40;;;;;;;7.78;4.60;;;589.00;2432.00;;;;;;5085196;28;20123;-74
2023/07/03 04:58:07;;;;;;;7.53;4.45;;;589.00;2432.00;;;;;;5073040;28;20024;-71
2023/07/03 05:00:34;;;;;;;10.15;4.85;;;589.00;2432.00;;;;;;5081492;28;20146;-71
2023/07/03 05:03:03;;;;;;;6.45;3.70;;;589.00;2432.00;;;;;;5084911;28;20108;-71
2023/07/03 05:05:30;;;;;;;9.18;4.05;;;589.00;2432.00;;;;;;5079201;28;20029;-71
2023/07/03 05:07:55;;;;;;;5.80;4.32;;;589.00;2432.00;;;;;;5079311;28;20067;-72
2023/07/03 05:10:22;;;;;;;10.80;5.25;;;589.10;2432.00;;;;;;5087734;28;20090;-71
2023/07/03 05:12:50;;;;;;;6.80;4.25;;;589.10;2432.00;;;;;;5079550;28;20032;-76
2023/07/03 05:15:17;;;;;;;7.80;4.13;;;589.20;2432.00;;;;;;5076091;28;20052;-72
2023/07/03 05:17:47;;;;;;;10.90;4.90;;;589.20;2432.00;;;;;;5071651;28;20112;-71
2023/07/03 05:20:16;;;;;;;10.02;4.30;;;589.20;2432.00;;;;;;5084380;28;20051;-72
2023/07/03 05:22:43;;;;;;;7.20;4.47;;;589.30;2432.00;;;;;;5079790;28;20347;-71
2023/07/03 05:25:10;;;;;;;7.72;4.50;;;589.20;2432.00;;;;;;5082244;28;20020;-70
2023/07/03 05:27:37;;;;;;;9.30;4.18;;;589.40;2432.00;;;;;;5079196;28;20432;-73
2023/07/03 05:30:03;;;;;;;11.98;5.22;;;589.30;2432.00;;;;;;5078374;28;20032;-72
2023/07/03 05:32:29;;;;;;;9.10;4.38;;;589.50;2432.00;;;;;;5083951;28;20024;-73
2023/07/03 05:34:55;;;;;;;8.57;4.43;;;589.50;2432.00;;;;;;5083944;28;20039;-72
2023/07/03 05:37:21;;;;;;;7.07;4.05;;;589.60;2432.00;;;;;;5080419;28;20027;-71
2023/07/03 05:39:49;;;;;;;10.48;5.32;;;589.70;2432.00;;;;;;5084250;28;20507;-70
2023/07/03 05:42:18;;;;;;;10.60;4.35;;;589.70;2432.00;;;;;;5080117;28;20085;-71
2023/07/03 05:44:45;;;;;;;8.38;4.60;;;589.70;2432.00;;;;;;5084575;28;20052;-70
2023/07/03 05:47:12;;;;;;;10.68;5.15;;;614.40;2432.00;;;;;;5070212;28;20024;-71
2023/07/03 05:49:38;;;;;;;7.28;4.45;;;614.50;2432.00;;;;;;5077501;28;20099;-71
2023/07/03 05:52:05;;;;;;;7.30;4.82;;;614.60;2432.00;;;;;;5075327;28;20116;-71
2023/07/03 05:54:31;;;;;;;11.35;4.40;;;614.70;2432.00;;;;;;5081808;28;20127;-73
2023/07/03 05:57:05;;;;;;;8.45;5.30;;;614.80;2432.00;;;;;;5080959;28;20135;-70
2023/07/03 05:59:32;;;;;;;8.77;4.85;;;614.80;2406.40;;;;;;5077030;28;20024;-70
2023/07/03 06:01:58;;;;;;;10.90;5.68;;;614.80;2329.60;;;;;;5075599;28;20020;-70
2023/07/03 06:04:24;;;;;;;8.82;5.07;;;614.80;2278.40;;;;;;5081181;28;20397;-70
2023/07/03 06:06:57;;;;;;;9.48;5.00;;;614.90;2304.00;;;;;;5078619;28;20470;-71
2023/07/03 06:09:24;;;;;;;10.02;5.18;;;614.90;2304.00;;;;;;5080067;28;20470;-70
2023/07/03 06:11:50;;;;;;;9.65;5.22;;;615.00;2252.80;;;;;;5073418;28;20027;-75
2023/07/03 06:14:17;;;;;;;10.90;5.25;;;615.10;2304.00;;;;;;5071185;28;20561;-72
2023/07/03 06:16:48;;;;;;;11.43;5.57;;;615.20;2278.40;;;;;;5078885;28;20024;-71
2023/07/03 06:19:16;;;;;;;10.02;5.25;;;615.20;2278.40;;;;;;5076920;28;20024;-71
2023/07/03 06:21:41;;;;;;;12.13;5.65;;;615.30;2304.00;;;;;;5079109;28;20066;-74
2023/07/03 06:24:10;;;;;;;9.07;5.07;;;615.30;2278.40;;;;;;5086195;28;20108;-72
2023/07/03 06:26:38;;;;;;;7.95;5.03;;;640.00;2201.60;;;;;;5082387;28;20017;-73
2023/07/03 06:29:05;;;;;;;8.23;4.95;;;640.10;2201.60;;;;;;5075296;28;20024;-72
2023/07/03 06:31:31;;;;;;;12.30;5.55;;;640.20;2176.00;;;;;;5077693;28;20033;-73
2023/07/03 06:33:57;;;;;;;8.18;5.63;;;640.20;2176.00;;;;;;5081820;28;20029;-73
2023/07/03 06:36:23;;;;;;;13.18;5.60;;;640.30;2150.40;;;;;;5078751;28;20031;-71
2023/07/03 06:38:55;;;;;;;12.15;5.72;;;640.40;2150.40;;;;;;5079502;28;20034;-71
2023/07/03 06:41:23;;;;;;;17.85;5.80;;;640.50;2099.20;;;;;;5076667;28;20107;-75
2023/07/03 06:43:49;;;;;;;15.98;6.00;;;640.60;2099.20;;;;;;5083895;28;20031;-72
2023/07/03 06:46:16;;;;;;;12.85;5.30;;;640.60;2073.60;;;;;;5074896;28;20560;-72
2023/07/03 06:48:43;;;;;;;11.15;4.93;;;640.70;2124.80;;;;;;5083551;28;20104;-74
2023/07/03 06:51:11;;;;;;;12.65;6.18;;;640.90;2048.00;;;;;;5083707;28;20107;-72
2023/07/03 06:53:37;;;;;;;10.90;4.68;;;640.90;2073.60;;;;;;5079079;28;20071;-71
2023/07/03 06:56:03;;;;;;;9.93;5.55;;;665.60;2022.40;;;;;;5082507;28;20105;-71
2023/07/03 06:58:30;;;;;;;11.88;6.60;;;665.60;2073.60;;;;;;5075246;28;20111;-72
2023/07/03 07:00:56;;;;;;;14.10;6.07;;;665.60;1971.20;;;;;;5074970;28;20077;-73
2023/07/03 07:03:23;;;;;;;12.02;6.15;;;665.70;2022.40;;;;;;5074669;28;20025;-73
2023/07/03 07:05:49;;;;;;;10.35;6.22;;;665.90;2022.40;;;;;;5077308;28;20111;-70
2023/07/03 07:08:17;;;;;;;11.85;5.32;;;665.90;1945.60;;;;;;5080751;28;20048;-71
2023/07/03 07:10:44;;;;;;;11.02;6.00;;;666.00;1920.00;;;;;;5075724;28;20111;-71
2023/07/03 07:13:11;;;;;;;12.15;6.05;;;666.20;1945.60;;;;;;5076389;28;20039;-72
2023/07/03 07:15:38;;;;;;;18.23;6.70;;;666.20;1945.60;;;;;;5077261;28;20044;-71
2023/07/03 07:18:05;;;;;;;12.95;6.25;;;666.30;1996.80;;;;;;5076423;28;20478;-73
2023/07/03 07:20:37;;;;;;;11.70;5.32;;;666.50;1996.80;;;;;;5082405;28;20025;-72
2023/07/03 07:23:02;;;;;;;11.85;5.63;;;691.20;1971.20;;;;;;5070232;28;20029;-75
2023/07/03 07:25:28;;;;;;;11.80;5.90;;;691.20;1868.80;;;;;;5084613;28;20133;-71
2023/07/03 07:27:54;;;;;;;9.90;5.20;;;691.30;1843.20;;;;;;5085675;28;20070;-71
2023/07/03 07:30:19;;;;;;;8.43;5.80;;;691.40;1843.20;;;;;;5081649;28;20044;-75
2023/07/03 07:32:47;;;;;;;8.90;5.97;;;691.60;1766.40;;;;;;5077926;28;20454;-72
2023/07/03 07:35:14;;;;;;;9.77;5.82;;;691.60;1740.80;;;;;;5078446;28;20504;-74
2023/07/03 07:37:40;;;;;;;37.00;9.13;;;691.60;1715.20;;;;;;5072102;28;20171;-72
2023/07/03 07:40:06;;;;;;;15.68;6.95;;;691.70;1740.80;;;;;;5085252;28;20484;-72
2023/07/03 07:42:32;;;;;;;13.65;6.28;;;691.80;1664.00;;;;;;5086764;28;20103;-73
2023/07/03 07:44:57;;;;;;;11.32;5.60;;;691.90;1638.40;;;;;;5080563;28;20099;-73
2023/07/03 07:47:23;;;;;;;12.77;5.68;;;691.90;1638.40;;;;;;5075338;28;20466;-72
2023/07/03 07:49:49;;;;;;;11.73;5.63;;;691.90;1638.40;;;;;;5078181;28;20070;-72
2023/07/03 07:52:18;;;;;;;15.07;6.82;;;691.90;1664.00;;;;;;5073343;28;20128;-71
2023/07/03 07:54:43;;;;;;;11.35;5.45;;;692.10;1664.00;;;;;;5077631;28;20565;-72
2023/07/03 07:57:09;;;;;;;13.38;5.55;;;716.80;1638.40;;;;;;5082293;28;20132;-72
2023/07/03 07:59:35;;;;;;;10.27;5.30;;;716.80;1612.80;;;;;;5075214;28;20493;-73
2023/07/03 08:02:02;;;;;;;14.65;6.40;;;716.90;1664.00;;;;;;5086708;28;20021;-71
2023/07/03 08:04:27;;;;;;;9.38;5.80;;;716.90;1689.60;;;;;;5088566;28;20020;-73
2023/07/03 08:06:53;;;;;;;18.02;5.75;;;717.00;1715.20;;;;;;5080451;28;20513;-74
2023/07/03 08:09:22;;;;;;;9.88;5.93;;;717.20;1740.80;;;;;;5075207;28;20032;-75
2023/07/03 08:11:47;;;;;;;7.60;4.78;;;717.20;1689.60;;;;;;5076605;28;20020;-73
2023/07/03 08:14:13;;;;;;;12.23;5.57;;;717.10;1664.00;;;;;;5076057;28;20082;-73
2023/07/03 08:16:39;;;;;;;9.70;5.53;;;717.20;1612.80;;;;;;5079372;28;20031;-72
2023/07/03 08:19:05;;;;;;;10.10;5.25;;;717.20;1638.40;;;;;;5080561;28;20024;-76
2023/07/03 08:21:31;;;;;;;13.30;6.00;;;717.20;1638.40;;;;;;5079461;28;20019;-72
2023/07/03 08:23:57;;;;;;;13.23;6.03;;;717.20;1638.40;;;;;;5074838;28;20037;-72
2023/07/03 08:26:23;;;;;;;12.20;5.50;;;717.20;1612.80;;;;;;5077586;28;20065;-76
2023/07/03 08:28:50;;;;;;;8.43;5.05;;;717.20;1612.80;;;;;;5088349;28;20027;-73
2023/07/03 08:31:16;;;;;;;7.00;4.55;;;717.30;1612.80;;;;;;5084415;28;20031;-71
2023/07/03 08:33:42;;;;;;;9.85;5.63;;;717.40;1612.80;;;;;;5079976;28;20032;-74
2023/07/03 08:36:08;;;;;;;7.47;5.05;;;717.40;1587.20;;;;;;5083893;28;20492;-76
2023/07/03 08:38:33;;;;;;;10.13;5.43;;;717.40;1587.20;;;;;;5079811;28;20113;-73
2023/07/03 08:41:01;;;;;;;8.55;5.28;;;717.30;1612.80;;;;;;5077481;28;20021;-74
2023/07/03 08:43:41;;;;;;;8.13;5.32;;;717.40;1536.00;;;;;;5083382;28;20056;-74
2023/07/03 08:46:12;;;;;;;7.32;5.07;;;717.60;1484.80;;;;;;5077993;28;20025;-73
2023/07/03 08:48:41;;;;;;;10.65;5.22;;;717.70;1510.40;;;;;;5074014;28;20024;-72
2023/07/03 08:51:12;;;;;;;11.40;5.57;;;717.70;1484.80;;;;;;5078810;28;20095;-73
2023/07/03 08:53:42;;;;;;;10.05;6.10;;;742.40;1536.00;;;;;;5078628;28;20028;-73
2023/07/03 08:56:16;;;;;;;8.48;5.38;;;717.70;1433.60;;;;;;5084761;28;20106;-72
2023/07/03 08:58:43;;;;;;;9.23;5.53;;;717.70;1433.60;;;;;;5077109;28;20020;-71
2023/07/03 09:01:17;;;;;;;13.68;6.18;;;717.70;1459.20;;;;;;5080028;28;20075;-72
2023/07/03 09:04:27;;;;;;;10.20;5.10;;;717.70;1408.00;;;;;;5081466;28;20085;-74
2023/07/03 09:07:01;;;;;;;11.02;5.35;;;742.40;1408.00;;;;;;5078345;28;20036;-72
2023/07/03 09:09:39;;;;;;;9.07;4.88;;;742.50;1408.00;;;;;;5078658;28;20025;-75
2023/07/03 09:12:09;;;;;;;8.10;4.80;;;742.40;1356.80;;;;;;5074354;28;20428;-72
2023/07/03 09:15:05;;;;;;;12.52;6.45;;;742.50;1408.00;;;;;;5083049;28;20032;-72
2023/07/03 09:17:32;;;;;;;10.20;5.70;;;742.60;1433.60;;;;;;5043022;28;20078;-72
2023/07/03 09:19:59;;;;;;;11.30;5.97;;;742.70;1408.00;;;;;;5036086;28;20036;-72
2023/07/03 09:22:34;;;;;;;12.43;5.75;;;742.70;1433.60;;;;;;5043161;28;20025;-73
2023/07/03 09:25:04;;;;;;;9.75;5.07;;;742.90;1433.60;;;;;;5036990;28;20395;-72
2023/07/03 09:27:30;;;;;;;10.10;5.20;;;742.90;1408.00;;;;;;5038399;28;20036;-73
2023/07/03 09:30:00;;;;;;;8.13;5.53;;;742.90;1331.20;;;;;;5038522;28;20037;-74
2023/07/03 09:32:28;;;;;;;10.50;5.82;;;742.90;1356.80;;;;;;5035100;28;20474;-72
2023/07/03 09:35:15;;;;;;;12.68;6.15;;;743.00;1331.20;;;;;;5038217;28;20077;-72
2023/07/03 09:37:44;;;;;;;10.25;6.15;;;743.10;1331.20;;;;;;5038969;28;20048;-72
2023/07/03 09:40:22;;;;;;;12.93;6.43;;;743.10;1305.60;;;;;;5038390;28;20118;-73
2023/07/03 09:42:48;;;;;;;8.38;5.13;;;743.10;1331.20;;;;;;5039889;28;20026;-74
2023/07/03 09:45:19;;;;;;;12.50;5.90;;;743.30;1331.20;;;;;;5037664;28;20024;-72
2023/07/03 09:47:52;;;;;;;8.23;5.05;;;768.10;1356.80;;;;;;5044442;28;20648;-71
2023/07/03 09:50:25;;;;;;;10.98;5.28;;;768.10;1305.60;;;;;;5031757;28;20026;-72
2023/07/03 09:52:55;;;;;;;11.10;5.72;;;768.20;1305.60;;;;;;5041392;28;20711;-73
2023/07/03 09:55:22;;;;;;;8.77;5.13;;;768.30;1305.60;;;;;;5073936;28;20139;-74
2023/07/03 09:57:48;;;;;;;10.13;5.43;;;768.60;1280.00;;;;;;5075642;28;20024;-74
2023/07/03 10:00:20;;;;;;;14.73;6.32;;;768.70;1305.60;;;;;;5080345;28;20033;-72
2023/07/03 10:02:50;;;;;;;9.15;5.65;;;768.90;1254.40;;;;;;5071406;28;20023;-72
2023/07/03 10:05:19;;;;;;;9.75;5.60;;;768.80;1254.40;;;;;;5075923;28;20499;-74
2023/07/03 10:07:46;;;;;;;10.25;5.78;;;768.90;1254.40;;;;;;5079906;28;20377;-73
2023/07/03 10:10:16;;;;;;;10.35;6.07;;;793.70;1356.80;;;;;;5075433;28;20112;-72
2023/07/03 10:13:21;;;;;;;11.05;5.50;;;793.70;1254.40;;;;;;5074535;28;20020;-75
2023/07/03 10:15:47;;;;;;;9.23;5.47;;;793.90;1280.00;;;;;;5040512;28;20026;-75
2023/07/03 10:18:24;;;;;;;12.55;5.80;;;794.20;1254.40;;;;;;5033608;28;20458;-74
2023/07/03 10:20:51;;;;;;;8.07;5.78;;;794.20;1254.40;;;;;;5039535;28;20049;-75
2023/07/03 10:23:23;;;;;;;9.15;5.65;;;794.30;1254.40;;;;;;5037196;28;20033;-73
2023/07/03 10:26:10;;;;;;;8.35;5.10;;;794.20;1228.80;;;;;;5034614;28;20025;-73
2023/07/03 10:28:45;;;;;;;9.68;5.40;;;794.30;1228.80;;;;;;5040775;28;20383;-71
2023/07/03 10:31:39;;;;;;;10.73;5.75;;;794.50;1228.80;;;;;;5035529;28;20018;-74
2023/07/03 10:34:10;;;;;;;11.85;6.38;;;794.40;1254.40;;;;;;5029996;28;20041;-77
2023/07/03 10:36:39;;;;;;;7.75;4.55;;;819.20;1228.80;;;;;;5049882;28;20374;-72
2023/07/03 10:39:08;;;;;;;9.27;5.95;;;819.30;1228.80;;;;;;5038118;28;20120;-74
2023/07/03 10:41:43;;;;;;;9.80;5.55;;;819.30;1203.20;;;;;;5024551;28;20025;-75
2023/07/03 10:44:22;;;;;;;12.18;7.03;;;819.30;1228.80;;;;;;5034284;28;20391;-74
2023/07/03 10:46:53;;;;;;;11.65;6.82;;;819.40;1203.20;;;;;;5039045;28;20499;-72
2023/07/03 10:49:32;;;;;;;8.95;5.47;;;819.40;1203.20;;;;;;5044264;28;20410;-73
2023/07/03 10:52:20;;;;;;;9.90;6.00;;;819.40;1228.80;;;;;;5042526;28;20071;-73
2023/07/03 10:54:56;;;;;;;11.50;5.90;;;819.60;1177.60;;;;;;5071533;28;20068;-73
2023/07/03 10:57:46;;;;;;;8.93;5.90;;;819.60;1177.60;;;;;;5075754;28;20037;-74
2023/07/03 11:00:23;;;;;;;18.05;10.85;;;819.80;1203.20;;;;;;5075674;28;20031;-72
2023/07/03 11:03:01;;;;;;;14.77;6.85;;;820.10;1203.20;;;;;;5076029;28;20024;-71
2023/07/03 11:05:40;;;;;;;12.10;8.07;;;820.10;1228.80;;;;;;5095753;28;20097;-70
2023/07/03 11:08:20;;;;;;;13.02;7.65;;;820.10;1152.00;;;;;;5077683;28;20021;-70
2023/07/03 11:11:11;;;;;;;10.40;6.75;;;820.10;1152.00;;;;;;5075501;28;20021;-73
2023/07/03 11:13:49;;;;;;;10.82;6.95;;;844.90;1177.60;;;;;;5070707;28;20108;-70
2023/07/03 11:16:16;;;;;;;10.02;5.57;;;844.90;1177.60;;;;;;5080876;28;20385;-72
2023/07/03 11:19:21;;;;;;;11.88;5.65;;;844.90;1177.60;;;;;;5080880;28;20500;-69
2023/07/03 11:22:06;;;;;;;12.40;5.40;;;844.90;1177.60;;;;;;5076371;28;20032;-74
2023/07/03 11:24:44;;;;;;;11.15;5.55;;;845.10;1152.00;;;;;;5076881;28;20013;-73
2023/07/03 11:27:25;;;;;;;9.25;5.53;;;845.00;1152.00;;;;;;5086277;28;20146;-73
2023/07/03 11:29:53;;;;;;;9.82;5.93;;;844.90;1152.00;;;;;;5084976;28;20048;-69
2023/07/03 11:32:20;;;;;;;12.75;6.28;;;845.10;1152.00;;;;;;5079235;28;20024;-71
2023/07/03 11:34:47;;;;;;;9.85;5.75;;;845.10;1100.80;;;;;;5083768;28;20481;-70
2023/07/03 11:37:31;;;;;;;12.05;5.40;;;845.00;1100.80;;;;;;5078988;28;20035;-72
2023/07/03 11:39:57;;;;;;;9.43;5.55;;;845.00;1126.40;;;;;;5075084;28;20028;-70
2023/07/03 11:42:26;;;;;;;10.65;6.28;;;845.00;1100.80;;;;;;5080127;28;20063;-70
2023/07/03 11:45:00;;;;;;;10.45;5.82;;;845.00;1126.40;;;;;;5082702;28;20029;-70
2023/07/03 11:47:31;;;;;;;11.50;5.65;;;845.00;1152.00;;;;;;5078728;28;20108;-74
2023/07/03 11:50:02;;;;;;;9.50;5.90;;;845.10;1126.40;;;;;;5084001;28;20024;-76
2023/07/03 11:52:31;;;;;;;13.38;5.82;;;845.30;1100.80;;;;;;5084165;28;20033;-75
2023/07/03 11:55:04;;;;;;;13.20;5.68;;;845.30;1100.80;;;;;;5086478;28;20074;-71
2023/07/03 11:57:37;;;;;;;9.20;5.53;;;845.20;1126.40;;;;;;5079215;28;20033;-70
2023/07/03 12:00:13;;;;;;;9.93;5.53;;;845.30;1126.40;;;;;;5075645;28;20035;-70
2023/07/03 12:02:50;;;;;;;9.57;5.22;;;845.30;1100.80;;;;;;5089066;28;20107;-72
2023/07/03 12:05:44;;;;;;;12.93;5.88;;;845.40;1075.20;;;;;;5079812;28;20021;-70
2023/07/03 12:08:18;;;;;;;11.95;5.85;;;845.60;1126.40;;;;;;5080759;28;20016;-70
2023/07/03 12:10:52;;;;;;;9.80;5.17;;;845.60;1100.80;;;;;;5081125;28;20439;-72
2023/07/03 12:13:41;;;;;;;9.88;5.32;;;845.50;1075.20;;;;;;5077797;28;20036;-70
2023/07/03 12:16:20;;;;;;;13.20;5.63;;;845.50;1049.60;;;;;;5082475;28;20028;-70
2023/07/03 12:18:57;;;;;;;11.10;5.68;;;845.40;1075.20;;;;;;5079597;28;20129;-72
2023/07/03 12:21:23;;;;;;;10.57;5.53;;;845.50;1075.20;;;;;;5076719;28;20031;-71
2023/07/03 12:23:51;;;;;;;9.00;5.65;;;845.50;1075.20;;;;;;5083610;28;20415;-70
2023/07/03 12:26:17;;;;;;;10.70;5.78;;;845.40;1075.20;;;;;;5084575;28;20031;-71